Time;durP1;ratioP1;P1;durP2;ratioP2;P2;SDS_P1;SDS_P2;PMS_P1;PMS_P2;Temp;Humidity;BMP_temperature;BMP_pressure;BME280_temperature;BME280_humidity;BME280_pressure;Samples;Min_cycle;Max_cycle;Signal;HPM_P1;HPM_P2
2022/01/02 00:00:07;;;;;;;3.75;2.50;;;;;;;12.59;73.51;101758.69;5065675;28;20076;-72
2022/01/02 00:02:37;;;;;;;6.03;2.55;;;;;;;12.59;73.26;101774.03;5060665;28;20060;-71
2022/01/02 00:05:08;;;;;;;4.45;2.85;;;;;;;12.58;73.77;101767.00;5067373;28;20048;-71
2022/01/02 00:07:43;;;;;;;6.40;3.28;;;;;;;12.58;73.46;101773.22;5077136;28;20044;-72
2022/01/02 00:10:13;;;;;;;4.82;2.67;;;;;;;12.57;73.68;101774.25;5069172;28;20072;-71
2022/01/02 00:12:50;;;;;;;4.10;2.70;;;;;;;12.58;73.73;101778.59;5067671;28;20051;-72
2022/01/02 00:15:21;;;;;;;5.80;2.50;;;;;;;12.57;73.39;101776.94;5072267;28;20087;-71
2022/01/02 00:17:53;;;;;;;6.85;3.10;;;;;;;12.59;73.43;101792.91;5069860;28;20083;-71
2022/01/02 00:20:31;;;;;;;4.55;2.25;;;;;;;12.58;73.04;101785.88;5068750;28;20052;-72
2022/01/02 00:23:00;;;;;;;5.38;2.95;;;;;;;12.58;73.31;101786.69;5070148;28;20530;-71
2022/01/02 00:25:32;;;;;;;9.00;3.50;;;;;;;12.59;73.18;101784.84;5060384;28;20160;-72
2022/01/02 00:28:01;;;;;;;4.72;2.40;;;;;;;12.58;73.40;101784.00;5074239;28;20079;-71
2022/01/02 00:30:40;;;;;;;6.25;2.60;;;;;;;12.60;73.52;101773.00;5056800;28;20317;-72
2022/01/02 00:33:10;;;;;;;8.43;3.70;;;;;;;12.58;73.57;101762.44;5068154;28;20111;-71
2022/01/02 00:35:38;;;;;;;6.00;2.90;;;;;;;12.58;73.20;101764.28;5061971;28;20044;-72
2022/01/02 00:38:06;;;;;;;4.65;2.85;;;;;;;12.58;73.44;101778.59;5066568;28;20045;-72
2022/01/02 00:40:41;;;;;;;5.05;2.85;;;;;;;12.58;73.09;101762.44;5059949;28;20044;-72
2022/01/02 00:43:14;;;;;;;5.88;2.40;;;;;;;12.58;73.43;101765.13;5061676;28;20075;-71
2022/01/02 00:45:46;;;;;;;9.32;2.90;;;;;;;12.57;73.20;101774.25;5069592;28;20079;-71
2022/01/02 00:48:20;;;;;;;4.75;2.65;;;;;;;12.57;73.32;101778.81;5075403;28;20455;-71
2022/01/02 00:50:51;;;;;;;8.80;2.63;;;;;;;12.56;73.52;101775.28;5066296;28;20381;-72
2022/01/02 00:53:22;;;;;;;4.65;2.58;;;;;;;12.53;73.54;101775.72;5067991;28;20050;-71
2022/01/02 00:55:57;;;;;;;5.03;2.72;;;;;;;12.54;73.66;101773.84;5079032;28;20177;-72
2022/01/02 00:58:35;;;;;;;4.82;2.90;;;;;;;12.53;73.95;101772.19;5071789;28;20044;-72
2022/01/02 01:01:06;;;;;;;9.95;2.60;;;;;;;12.51;73.97;101775.09;5065384;28;20048;-72
2022/01/02 01:03:40;;;;;;;4.85;2.65;;;;;;;12.50;74.05;101765.34;5076132;28;20585;-72
2022/01/02 01:06:11;;;;;;;5.40;2.60;;;;;;;12.49;73.75;101742.13;5074083;28;20079;-72
2022/01/02 01:08:40;;;;;;;7.35;2.53;;;;;;;12.48;74.10;101748.56;5065501;28;20064;-72
2022/01/02 01:11:09;;;;;;;5.57;2.58;;;;;;;12.48;73.79;101748.56;5073415;28;20043;-72
2022/01/02 01:13:37;;;;;;;4.30;2.50;;;;;;;12.46;74.27;101747.13;5077885;28;20410;-72
2022/01/02 01:16:05;;;;;;;6.93;2.92;;;;;;;12.46;74.37;101744.44;5065594;28;20069;-72
2022/01/02 01:18:33;;;;;;;5.10;2.58;;;;;;;12.47;74.12;101727.22;5078355;28;20104;-72
2022/01/02 01:21:02;;;;;;;4.78;2.55;;;;;;;12.46;74.00;101722.84;5075590;28;20076;-72
2022/01/02 01:23:29;;;;;;;6.22;2.45;;;;;;;12.44;74.32;101724.94;5068539;28;20041;-71
2022/01/02 01:26:06;;;;;;;10.00;2.97;;;;;;;12.44;73.90;101722.25;5064639;28;20045;-71
2022/01/02 01:28:34;;;;;;;6.55;2.30;;;;;;;12.44;74.17;101722.25;5060803;28;20091;-72
2022/01/02 01:31:02;;;;;;;4.18;2.70;;;;;;;12.43;74.30;101720.59;5077692;28;20049;-71
2022/01/02 01:33:30;;;;;;;4.68;2.80;;;;;;;12.42;74.12;101714.38;5080669;28;20045;-71
2022/01/02 01:35:57;;;;;;;5.65;3.03;;;;;;;12.42;74.40;101716.22;5066228;28;20658;-71
2022/01/02 01:38:26;;;;;;;7.65;2.95;;;;;;;12.42;74.17;101718.94;5068441;28;20048;-71
2022/01/02 01:41:00;;;;;;;8.13;2.53;;;;;;;12.41;74.18;101718.09;5068688;28;20518;-71
2022/01/02 01:43:37;;;;;;;4.40;2.53;;;;;;;12.42;74.41;101713.53;5081674;28;20076;-71
2022/01/02 01:46:07;;;;;;;3.92;2.38;;;;;;;12.42;74.46;101705.44;5070439;28;20067;-71
2022/01/02 01:48:35;;;;;;;6.78;3.15;;;;;;;12.43;74.48;101699.84;5065252;28;20126;-71
2022/01/02 01:51:03;;;;;;;5.25;2.72;;;;;;;12.43;74.49;101697.16;5079473;28;20087;-71
2022/01/02 01:53:32;;;;;;;5.72;2.22;;;;;;;12.42;74.56;101695.50;5063768;28;20055;-71
2022/01/02 01:56:00;;;;;;;4.78;2.75;;;;;;;12.43;74.35;101693.63;5073479;28;20053;-71
2022/01/02 01:58:28;;;;;;;4.50;2.40;;;;;;;12.43;74.62;101693.63;5063291;28;20046;-72
2022/01/02 02:00:55;;;;;;;6.30;3.10;;;;;;;12.42;74.42;101692.78;5065206;28;20064;-71
2022/01/02 02:03:23;;;;;;;8.23;2.97;;;;;;;12.38;74.34;101684.31;5068669;28;20144;-71
2022/01/02 02:05:51;;;;;;;4.68;2.80;;;;;;;12.41;74.36;101680.34;5073525;28;20482;-72
2022/01/02 02:08:24;;;;;;;8.10;2.40;;;;;;;12.41;74.60;101679.53;5070467;28;20493;-71
2022/01/02 02:10:56;;;;;;;4.60;2.75;;;;;;;12.37;74.23;101666.47;5075119;28;20033;-71
2022/01/02 02:13:25;;;;;;;5.78;2.60;;;;;;;12.41;74.39;101657.97;5066745;28;20049;-71
2022/01/02 02:15:53;;;;;;;7.97;3.15;;;;;;;12.41;74.58;101669.56;5063907;28;20044;-71
2022/01/02 02:18:21;;;;;;;6.82;2.83;;;;;;;12.39;74.26;101656.31;5065450;28;20056;-71
2022/01/02 02:20:50;;;;;;;4.97;2.50;;;;;;;12.39;74.69;101644.69;5062931;28;20101;-71
2022/01/02 02:23:18;;;;;;;4.15;2.72;;;;;;;12.39;74.50;101645.53;5073969;28;20188;-71
2022/01/02 02:25:45;;;;;;;6.80;3.05;;;;;;;12.38;74.31;101641.19;5062484;28;20052;-71
2022/01/02 02:28:15;;;;;;;5.93;3.08;;;;;;;12.38;74.46;101645.75;5073779;28;20045;-71
2022/01/02 02:30:46;;;;;;;5.47;2.60;;;;;;;12.37;74.32;101633.31;5072482;28;20040;-71
2022/01/02 02:33:16;;;;;;;6.32;2.90;;;;;;;12.36;74.27;101635.19;5069655;28;20055;-72
2022/01/02 02:35:46;;;;;;;4.25;2.80;;;;;;;12.31;74.43;101626.91;5072904;28;20486;-72
2022/01/02 02:38:17;;;;;;;4.95;2.70;;;;;;;12.33;74.28;101627.50;5068605;28;20046;-71
2022/01/02 02:40:45;;;;;;;5.65;2.40;;;;;;;12.34;74.44;101628.34;5074596;28;20090;-71
2022/01/02 02:43:25;;;;;;;4.88;2.78;;;;;;;12.34;74.44;101613.00;5065060;28;20048;-71
2022/01/02 02:51:29;;;;;;;6.47;2.50;;;;;;;12.31;74.51;101608.03;5062189;28;20041;-71
2022/01/02 02:53:59;;;;;;;4.13;2.40;;;;;;;12.32;74.61;101608.84;5075361;28;20072;-71
2022/01/02 02:56:30;;;;;;;7.20;2.45;;;;;;;12.31;74.64;101608.03;5077232;28;20059;-71
2022/01/02 02:58:58;;;;;;;5.65;2.83;;;;;;;12.27;74.36;101614.06;5062295;28;20049;-71
2022/01/02 03:01:28;;;;;;;5.72;2.55;;;;;;;12.29;74.79;101609.28;5064306;28;20099;-71
2022/01/02 03:03:57;;;;;;;4.38;2.15;;;;;;;12.29;74.66;101593.94;5056317;28;20053;-71
2022/01/02 03:06:25;;;;;;;5.00;2.35;;;;;;;12.28;74.58;101591.47;5072771;28;20048;-71
2022/01/02 03:08:53;;;;;;;9.07;2.92;;;;;;;12.29;74.70;101590.44;5065974;28;20049;-71
2022/01/02 03:11:24;;;;;;;6.90;2.90;;;;;;;12.28;74.92;101599.56;5066386;28;20057;-72
2022/01/02 03:13:54;;;;;;;5.22;2.80;;;;;;;12.24;74.80;101599.16;5073581;28;20674;-71
2022/01/02 03:16:22;;;;;;;5.88;2.83;;;;;;;12.27;74.71;101600.59;5071714;28;20073;-71
2022/01/02 03:18:50;;;;;;;7.22;3.35;;;;;;;12.29;74.93;101595.81;5068166;28;20075;-72
2022/01/02 03:21:18;;;;;;;8.90;2.90;;;;;;;12.28;74.70;101580.69;5065479;28;20051;-72
2022/01/02 03:23:46;;;;;;;4.53;2.33;;;;;;;12.28;74.99;101584.22;5073093;28;20067;-71
2022/01/02 03:26:13;;;;;;;6.68;3.42;;;;;;;12.28;74.68;101583.38;5059356;28;20072;-71
2022/01/02 03:28:43;;;;;;;6.82;3.25;;;;;;;12.29;74.71;101593.13;5063125;28;20513;-71
2022/01/02 03:31:11;;;;;;;3.92;2.30;;;;;;;12.28;74.85;101589.59;5070233;28;20048;-71
2022/01/02 03:33:39;;;;;;;5.10;2.47;;;;;;;12.29;74.71;101593.13;5074153;28;20104;-71
2022/01/02 03:36:07;;;;;;;5.65;2.67;;;;;;;12.28;74.60;101605.78;5073099;28;20439;-71
2022/01/02 03:38:36;;;;;;;5.47;2.28;;;;;;;12.29;74.94;101590.44;5063602;28;20100;-71
2022/01/02 03:41:04;;;;;;;7.03;2.83;;;;;;;12.27;75.00;101581.72;5071017;28;20048;-71
2022/01/02 03:43:32;;;;;;;4.00;2.67;;;;;;;12.28;74.82;101586.91;5062560;28;20059;-71
2022/01/02 03:46:03;;;;;;;8.07;2.65;;;;;;;12.24;75.05;101574.06;5073863;28;20076;-71
2022/01/02 03:48:31;;;;;;;5.60;2.35;;;;;;;12.28;74.77;101578.00;5071117;28;20065;-71
2022/01/02 03:51:05;;;;;;;6.13;2.35;;;;;;;12.27;74.92;101573.63;5068023;28;20041;-71
2022/01/02 03:53:32;;;;;;;6.90;2.45;;;;;;;12.28;74.89;101578.00;5064320;28;20049;-72
2022/01/02 03:56:00;;;;;;;6.25;2.90;;;;;;;12.26;74.98;101567.44;5066219;28;20052;-71
2022/01/02 03:58:28;;;;;;;6.80;2.53;;;;;;;12.25;74.68;101564.94;5075457;28;20076;-72
2022/01/02 04:00:55;;;;;;;6.68;2.47;;;;;;;12.24;74.92;101558.72;5065679;28;20482;-71
2022/01/02 04:03:25;;;;;;;5.10;2.63;;;;;;;12.24;74.85;101552.50;5062454;28;20064;-71
2022/01/02 04:05:52;;;;;;;4.35;2.58;;;;;;;12.22;75.18;101539.25;5065789;28;20073;-71
2022/01/02 04:08:20;;;;;;;8.45;2.90;;;;;;;12.21;74.96;101529.50;5073674;28;20076;-71
2022/01/02 04:10:48;;;;;;;5.15;2.50;;;;;;;12.22;74.77;101535.72;5069540;28;20064;-71
2022/01/02 04:13:15;;;;;;;8.50;2.28;;;;;;;12.14;74.84;101517.13;5079457;28;20076;-71
2022/01/02 04:15:43;;;;;;;4.50;2.63;;;;;;;12.20;74.89;101538.63;5061175;28;20087;-71
2022/01/02 04:18:11;;;;;;;10.50;3.13;;;;;;;12.20;74.98;101533.25;5075324;28;20044;-71
2022/01/02 04:20:40;;;;;;;7.50;3.70;;;;;;;12.21;75.01;101531.38;5069792;28;20453;-71
2022/01/02 04:23:08;;;;;;;7.43;2.90;;;;;;;12.19;75.04;101531.59;5065060;28;20507;-71
2022/01/02 04:25:35;;;;;;;6.75;2.80;;;;;;;12.17;75.07;101528.28;5069519;28;20118;-71
2022/01/02 04:28:03;;;;;;;5.18;2.78;;;;;;;12.16;74.83;101520.41;5064798;28;20056;-71
2022/01/02 04:30:31;;;;;;;10.68;3.35;;;;;;;12.20;75.17;101521.66;5068264;28;20048;-71
2022/01/02 04:32:59;;;;;;;4.82;2.30;;;;;;;12.16;75.16;101526.63;5071234;28;20192;-72
2022/01/02 04:35:27;;;;;;;6.82;2.50;;;;;;;12.17;74.89;101527.47;5065058;28;20498;-71
2022/01/02 04:37:56;;;;;;;5.50;2.17;;;;;;;12.17;75.03;101522.91;5064954;28;20073;-71
2022/01/02 04:40:23;;;;;;;8.70;2.42;;;;;;;12.18;74.94;101519.16;5070480;28;20057;-71
2022/01/02 04:42:51;;;;;;;7.03;3.05;;;;;;;12.17;74.92;101512.13;5067307;28;20072;-71
2022/01/02 04:45:19;;;;;;;3.65;2.05;;;;;;;12.17;75.01;101509.44;5071620;28;20072;-72
2022/01/02 04:47:47;;;;;;;5.85;2.60;;;;;;;12.18;75.19;101502.16;5064754;28;20104;-71
2022/01/02 04:50:14;;;;;;;8.82;3.03;;;;;;;12.18;74.94;101497.59;5066495;28;20171;-71
2022/01/02 04:52:42;;;;;;;4.82;2.38;;;;;;;12.19;75.25;101490.34;5073484;28;20044;-71
2022/01/02 04:55:11;;;;;;;7.80;2.78;;;;;;;12.11;74.86;101475.28;5071272;28;20463;-71
2022/01/02 04:57:39;;;;;;;7.97;2.63;;;;;;;12.19;75.01;101476.88;5064081;28;20045;-71
2022/01/02 05:00:08;;;;;;;5.53;2.28;;;;;;;12.18;75.14;101457.19;5065637;28;20068;-71
2022/01/02 05:02:36;;;;;;;5.68;2.60;;;;;;;12.17;75.21;101450.16;5065288;28;20068;-71
2022/01/02 05:05:05;;;;;;;6.32;2.42;;;;;;;12.18;75.25;101443.72;5068558;28;20060;-71
2022/01/02 05:07:32;;;;;;;4.72;2.20;;;;;;;12.18;75.11;101442.88;5071093;28;20132;-71
2022/01/02 05:10:00;;;;;;;6.60;2.55;;;;;;;12.17;75.06;101441.22;5077543;28;20051;-72
2022/01/02 05:12:29;;;;;;;4.03;1.90;;;;;;;12.16;75.25;101437.72;5066335;28;20052;-71
2022/01/02 05:14:58;;;;;;;4.80;2.55;;;;;;;12.18;75.30;101442.88;5072121;28;20502;-71
2022/01/02 05:17:25;;;;;;;8.32;2.30;;;;;;;12.17;75.19;101431.28;5076200;28;20056;-71
2022/01/02 05:19:53;;;;;;;5.57;2.30;;;;;;;12.17;75.03;101428.59;5066173;28;20057;-71
2022/01/02 05:22:22;;;;;;;7.63;2.97;;;;;;;12.13;74.94;101413.94;5066077;28;20091;-71
2022/01/02 05:24:50;;;;;;;5.93;2.30;;;;;;;12.16;74.99;101413.47;5061082;28;20065;-71
2022/01/02 05:27:17;;;;;;;4.63;2.30;;;;;;;12.16;75.28;101402.69;5065143;28;20084;-71
2022/01/02 05:29:46;;;;;;;7.75;2.30;;;;;;;12.15;75.35;101402.91;5079482;28;20084;-71
2022/01/02 05:32:14;;;;;;;4.10;2.00;;;;;;;12.14;75.23;101396.69;5068957;28;20052;-71
2022/01/02 05:34:42;;;;;;;5.28;2.45;;;;;;;12.14;74.99;101402.09;5063921;28;20132;-71
2022/01/02 05:37:10;;;;;;;4.72;2.30;;;;;;;12.13;74.99;101402.34;5064932;28;20049;-71
2022/01/02 05:39:37;;;;;;;5.25;2.05;;;;;;;12.09;74.99;101399.25;5073714;28;20055;-71
2022/01/02 05:42:06;;;;;;;5.43;2.22;;;;;;;12.13;75.37;101402.34;5075458;28;20045;-72
2022/01/02 05:44:34;;;;;;;5.70;2.90;;;;;;;12.11;75.25;101397.16;5067737;28;20053;-72
2022/01/02 05:47:03;;;;;;;7.72;2.70;;;;;;;12.12;75.26;101395.28;5074977;28;20394;-71
2022/01/02 05:49:31;;;;;;;6.32;2.58;;;;;;;12.11;75.08;101394.47;5070016;28;20056;-71
2022/01/02 05:52:00;;;;;;;4.80;2.63;;;;;;;12.03;75.00;101374.00;5065999;28;20078;-72
2022/01/02 05:54:27;;;;;;;4.55;2.17;;;;;;;12.10;75.09;101387.44;5068501;28;20052;-72
2022/01/02 05:56:55;;;;;;;4.97;2.38;;;;;;;12.10;75.10;101375.81;5062809;28;20080;-72
2022/01/02 05:59:24;;;;;;;5.10;2.30;;;;;;;12.08;75.23;101367.97;5067614;28;20052;-72
2022/01/02 06:01:53;;;;;;;10.93;2.35;;;;;;;12.08;74.95;101341.00;5066824;28;20045;-72
2022/01/02 06:04:22;;;;;;;6.10;2.50;;;;;;;12.05;75.32;101323.41;5064106;28;20044;-72
2022/01/02 06:06:50;;;;;;;4.05;2.15;;;;;;;12.00;74.85;101298.19;5065041;28;20103;-72
2022/01/02 06:09:17;;;;;;;9.07;2.30;;;;;;;12.06;75.12;101310.78;5071773;28;20056;-72
2022/01/02 06:11:45;;;;;;;16.30;2.33;;;;;;;11.98;75.03;101287.63;5063333;28;20049;-72
2022/01/02 06:14:13;;;;;;;4.65;2.38;;;;;;;12.06;75.07;101297.31;5065410;28;20063;-72
2022/01/02 06:16:40;;;;;;;4.43;2.17;;;;;;;12.06;75.00;101297.31;5062970;28;20052;-72
2022/01/02 06:19:08;;;;;;;6.53;2.90;;;;;;;12.07;75.31;101292.75;4708993;28;10000355;-71
2022/01/02 06:21:37;;;;;;;5.13;1.98;;;;;;;12.03;75.06;101274.31;5063779;28;20314;-72
2022/01/02 06:24:05;;;;;;;7.30;2.80;;;;;;;12.06;74.98;101283.84;5063010;28;20533;-71
2022/01/02 06:26:33;;;;;;;5.45;2.38;;;;;;;12.05;75.10;101274.94;5058509;28;20056;-71
2022/01/02 06:29:03;;;;;;;7.20;2.70;;;;;;;12.06;75.30;101262.28;5059380;28;20057;-71
2022/01/02 06:31:31;;;;;;;4.00;2.15;;;;;;;12.07;75.01;101261.25;5071794;28;20060;-71
2022/01/02 06:33:59;;;;;;;5.70;2.17;;;;;;;12.15;74.94;101243.94;5070414;28;20059;-70
2022/01/02 06:36:27;;;;;;;4.47;2.03;;;;;;;12.28;74.27;101228.44;5062257;28;20117;-69
2022/01/02 06:38:56;;;;;;;4.13;2.33;;;;;;;12.42;73.59;101218.34;5061925;28;20049;-71
2022/01/02 06:41:23;;;;;;;6.97;2.20;;;;;;;12.58;73.21;101208.84;5059930;28;20461;-71
2022/01/02 06:43:52;;;;;;;5.55;1.90;;;;;;;12.75;72.57;101204.47;5058362;28;20045;-69
2022/01/02 06:46:20;;;;;;;6.60;2.00;;;;;;;12.91;72.19;101184.13;5063638;28;20066;-71
2022/01/02 06:48:48;;;;;;;3.70;2.08;;;;;;;13.11;71.26;101176.56;5067454;28;20052;-73
2022/01/02 06:51:36;;;;;;;7.28;2.72;;;;;;;13.32;70.35;101167.16;5058370;28;20542;-69
2022/01/02 06:54:05;;;;;;;5.65;2.22;;;;;;;13.35;70.29;101163.97;5059331;28;20080;-70
2022/01/02 06:56:33;;;;;;;6.70;2.13;;;;;;;13.28;70.82;101160.56;5066879;28;20064;-70
2022/01/02 06:59:01;;;;;;;7.25;2.35;;;;;;;13.22;70.83;101167.72;5069627;28;20049;-70
2022/01/02 07:01:29;;;;;;;11.18;2.30;;;;;;;13.16;71.13;101159.69;5060458;28;20060;-70
2022/01/02 07:03:57;;;;;;;11.77;2.20;;;;;;;13.13;71.58;101146.66;5056693;28;20056;-69
2022/01/02 07:06:24;;;;;;;6.07;2.10;;;;;;;13.04;71.54;101144.28;5073975;28;20052;-69
2022/01/02 07:08:52;;;;;;;3.70;1.92;;;;;;;13.00;71.99;101139.59;5054045;28;20184;-69
2022/01/02 07:11:21;;;;;;;5.57;2.30;;;;;;;13.02;72.63;101138.31;5065419;28;20072;-71
2022/01/02 07:13:49;;;;;;;5.57;2.17;;;;;;;12.89;72.03;101133.09;5053184;28;20080;-67
2022/01/02 07:16:17;;;;;;;3.92;2.17;;;;;;;12.85;72.46;101131.09;5058385;28;20129;-69
2022/01/02 07:18:44;;;;;;;6.53;2.10;;;;;;;12.74;72.69;101129.19;5070764;28;20072;-69
2022/01/02 07:21:13;;;;;;;12.70;2.85;;;;;;;12.66;73.02;101125.75;5069429;28;20044;-69
2022/01/02 07:23:41;;;;;;;3.45;2.17;;;;;;;12.62;73.03;101137.22;5058739;28;20061;-68
2022/01/02 07:26:08;;;;;;;4.28;1.98;;;;;;;12.57;73.53;101139.78;5053359;28;20562;-69
2022/01/02 07:28:37;;;;;;;8.07;2.72;;;;;;;12.51;73.29;101130.72;5053775;28;20103;-70
2022/01/02 07:31:05;;;;;;;4.30;2.28;;;;;;;12.47;73.41;101137.63;5054240;28;20376;-69
2022/01/02 07:33:33;;;;;;;4.57;2.15;;;;;;;12.44;73.63;101135.38;5052505;28;20091;-71
2022/01/02 07:36:01;;;;;;;8.55;2.20;;;;;;;12.42;73.99;101133.97;5062155;28;20053;-70
2022/01/02 07:38:31;;;;;;;6.00;2.30;;;;;;;12.39;74.22;101125.28;5055712;28;20136;-69
2022/01/02 07:40:59;;;;;;;5.53;2.42;;;;;;;12.38;74.17;101130.91;5060194;28;20075;-70
2022/01/02 07:43:27;;;;;;;8.15;2.53;;;;;;;12.35;74.06;101129.47;5062456;28;20076;-68
2022/01/02 07:45:56;;;;;;;4.55;2.50;;;;;;;12.33;74.35;101115.41;5059564;28;20084;-71
2022/01/02 07:48:24;;;;;;;3.90;2.05;;;;;;;12.32;74.10;101124.53;5060531;28;20049;-70
2022/01/02 07:50:51;;;;;;;5.43;2.22;;;;;;;12.30;74.58;101137.41;5058075;28;20064;-69
2022/01/02 07:53:19;;;;;;;4.22;1.73;;;;;;;12.30;74.42;101145.50;5057665;28;20053;-70
2022/01/02 07:55:47;;;;;;;4.00;2.25;;;;;;;12.30;74.50;101156.28;5059578;28;20087;-70
2022/01/02 07:58:15;;;;;;;5.25;2.05;;;;;;;12.29;74.29;101173.50;5068151;28;20173;-70
2022/01/02 08:00:43;;;;;;;5.63;2.40;;;;;;;12.30;74.35;101182.41;5075138;28;20076;-69
2022/01/02 08:03:13;;;;;;;4.80;2.60;;;;;;;12.29;74.47;101175.38;5068936;28;20286;-72
2022/01/02 08:05:41;;;;;;;5.50;2.47;;;;;;;12.28;74.61;101163.78;5062746;28;20037;-70
2022/01/02 08:08:08;;;;;;;4.38;2.03;;;;;;;12.27;74.08;101154.03;5062847;28;20056;-70
2022/01/02 08:10:39;;;;;;;4.30;1.77;;;;;;;12.27;74.25;101154.03;5064639;28;20057;-70
2022/01/02 08:13:07;;;;;;;4.18;1.85;;;;;;;12.27;74.40;101156.72;5059931;28;20045;-70
2022/01/02 08:15:34;;;;;;;5.15;1.90;;;;;;;12.28;74.35;101163.78;5063554;28;20052;-70
2022/01/02 08:18:02;;;;;;;5.40;2.25;;;;;;;12.28;74.04;101169.16;5053954;28;20533;-71
2022/01/02 08:20:31;;;;;;;4.97;2.20;;;;;;;12.28;74.22;101177.25;5054739;28;20109;-71
2022/01/02 08:22:59;;;;;;;6.45;3.38;;;;;;;12.28;74.11;101171.03;5054872;28;20072;-69
2022/01/02 08:25:27;;;;;;;3.88;2.38;;;;;;;12.28;74.30;101171.03;5053309;28;20076;-70
2022/01/02 08:27:55;;;;;;;6.93;2.67;;;;;;;12.27;74.28;101161.31;5057522;28;20083;-69
2022/01/02 08:30:23;;;;;;;4.00;1.90;;;;;;;12.31;74.18;101157.94;5058014;28;20087;-69
2022/01/02 08:32:51;;;;;;;3.85;1.95;;;;;;;12.28;73.87;101150.28;5055870;28;20103;-71
2022/01/02 08:35:18;;;;;;;4.07;2.03;;;;;;;12.26;74.21;101157.78;5053361;28;20072;-70
2022/01/02 08:37:47;;;;;;;4.40;2.17;;;;;;;12.24;74.21;101159.88;5059289;28;20095;-70
2022/01/02 08:40:15;;;;;;;4.32;2.10;;;;;;;12.25;73.96;101160.72;5057876;28;20096;-70
2022/01/02 08:42:43;;;;;;;5.70;2.30;;;;;;;12.24;73.99;101138.31;5054007;28;20072;-69
2022/01/02 08:45:11;;;;;;;4.60;1.73;;;;;;;12.23;74.34;101154.72;5054202;28;20166;-69
2022/01/02 08:47:39;;;;;;;4.78;1.90;;;;;;;12.22;74.28;101153.91;5055745;28;20183;-71
2022/01/02 08:50:07;;;;;;;8.55;2.70;;;;;;;12.22;74.27;101156.59;5063908;28;20083;-66
2022/01/02 08:52:35;;;;;;;3.30;2.20;;;;;;;12.21;74.12;101165.72;5060295;28;20079;-72
2022/01/02 08:55:05;;;;;;;4.78;1.98;;;;;;;12.24;74.05;101175.22;5062873;28;20133;-72
2022/01/02 08:57:33;;;;;;;4.10;1.80;;;;;;;12.22;73.82;101175.44;5069621;28;20051;-72
2022/01/02 09:00:00;;;;;;;5.07;2.00;;;;;;;12.19;74.15;101173.19;5070319;28;20087;-72
2022/01/02 09:02:28;;;;;;;3.78;1.70;;;;;;;12.20;74.18;101169.47;5065934;28;20044;-70
2022/01/02 09:04:56;;;;;;;4.47;2.00;;;;;;;12.20;74.14;101177.53;5056822;28;20120;-71
2022/01/02 09:07:24;;;;;;;5.90;1.65;;;;;;;12.19;73.97;101173.19;5055311;28;20079;-72
2022/01/02 09:09:52;;;;;;;4.95;2.10;;;;;;;12.18;73.65;101173.44;5064878;28;20044;-72
2022/01/02 09:12:21;;;;;;;4.78;2.13;;;;;;;12.15;73.71;101176.56;5059709;28;20083;-70
2022/01/02 09:14:48;;;;;;;4.00;1.98;;;;;;;12.17;73.57;101169.09;5069064;28;20052;-71
2022/01/02 09:17:16;;;;;;;3.92;1.95;;;;;;;12.15;74.11;101161.22;5062575;28;20079;-71
2022/01/02 09:19:44;;;;;;;3.17;1.92;;;;;;;12.17;74.07;101169.09;5059331;28;20048;-72
2022/01/02 09:22:12;;;;;;;3.17;1.90;;;;;;;12.15;73.52;101163.91;5059780;28;20056;-74
2022/01/02 09:24:39;;;;;;;5.97;2.10;;;;;;;12.22;73.67;101155.75;5071617;28;20048;-70
2022/01/02 09:27:07;;;;;;;4.07;2.22;;;;;;;12.20;73.87;101165.94;5063626;28;20110;-68
2022/01/02 09:29:36;;;;;;;6.38;2.45;;;;;;;12.18;73.60;101174.25;5062798;28;20095;-63
2022/01/02 09:32:05;;;;;;;3.03;1.88;;;;;;;12.19;73.85;101164.28;5058857;28;20105;-69
2022/01/02 09:34:32;;;;;;;4.88;2.42;;;;;;;12.20;73.82;101169.47;5067694;28;20080;-70
2022/01/02 09:37:01;;;;;;;4.22;2.28;;;;;;;12.20;73.74;101177.53;5061677;28;20091;-70
2022/01/02 09:39:28;;;;;;;5.25;2.47;;;;;;;12.21;73.74;101175.69;5057268;28;20102;-70
2022/01/02 09:42:03;;;;;;;6.60;2.47;;;;;;;12.23;73.91;101177.09;5056317;28;20061;-68
2022/01/02 09:44:32;;;;;;;6.18;2.90;;;;;;;12.34;73.50;101183.59;5061421;28;20459;-69
2022/01/02 09:47:01;;;;;;;4.68;2.47;;;;;;;12.38;72.94;101177.53;5061135;28;20065;-69
2022/01/02 09:49:31;;;;;;;7.68;2.80;;;;;;;12.33;73.22;101179.28;5064151;28;20086;-70
2022/01/02 09:51:59;;;;;;;5.90;2.53;;;;;;;12.28;72.81;101177.25;5068959;28;20064;-68
2022/01/02 09:54:28;;;;;;;5.60;3.13;;;;;;;12.27;72.66;101154.03;5071237;28;20075;-69
2022/01/02 09:56:56;;;;;;;4.60;2.60;;;;;;;12.41;72.74;101180.84;4713611;28;10000633;-70
2022/01/02 09:59:24;;;;;;;7.47;2.55;;;;;;;12.38;72.65;101190.19;5067543;28;20430;-71
2022/01/02 10:01:53;;;;;;;4.57;2.40;;;;;;;12.33;72.90;101193.56;5062833;28;20053;-68
2022/01/02 10:04:34;;;;;;;4.05;2.67;;;;;;;12.32;73.31;101189.22;5058970;28;20154;-68
2022/01/02 10:07:02;;;;;;;6.15;2.60;;;;;;;12.30;73.11;101196.72;5058884;28;20041;-67
2022/01/02 10:09:32;;;;;;;7.00;2.50;;;;;;;12.48;73.61;101193.19;5062571;28;20123;-68
2022/01/02 10:12:22;;;;;;;6.90;2.88;;;;;;;12.64;73.22;101194.44;5061560;28;20069;-69
2022/01/02 10:15:15;;;;;;;10.00;2.63;;;;;;;12.45;72.70;101182.84;5063372;28;20045;-69
2022/01/02 10:17:54;;;;;;;5.47;2.55;;;;;;;12.37;73.53;101196.63;5064198;28;20118;-71
2022/01/02 10:20:25;;;;;;;4.57;2.80;;;;;;;12.53;72.95;101211.38;5057343;28;20052;-70
2022/01/02 10:23:05;;;;;;;6.05;2.80;;;;;;;12.52;72.96;101212.44;5051423;28;20556;-72
2022/01/02 10:25:38;;;;;;;9.52;3.22;;;;;;;12.43;72.46;101198.44;5057558;28;20057;-65
2022/01/02 10:28:27;;;;;;;8.05;2.90;;;;;;;12.42;72.21;101190.56;5062921;28;20396;-68
2022/01/02 10:30:59;;;;;;;15.18;3.20;;;;;;;12.38;72.68;101190.19;5055309;28;20056;-66
2022/01/02 10:33:28;;;;;;;18.65;3.33;;;;;;;12.38;73.25;101182.09;5062663;28;20060;-70
2022/01/02 10:35:58;;;;;;;8.20;3.38;;;;;;;12.36;73.60;101171.56;5064229;28;20506;-74
2022/01/02 10:38:27;;;;;;;8.88;2.60;;;;;;;12.47;73.56;101174.53;5070760;28;20073;-73
2022/01/02 10:40:54;;;;;;;12.65;4.07;;;;;;;12.62;72.78;101175.78;5060973;28;20099;-69
2022/01/02 10:43:31;;;;;;;8.68;3.95;;;;;;;12.74;71.45;101170.47;5078908;28;20053;-75
2022/01/02 10:46:03;;;;;;;10.80;3.17;;;;;;;12.94;71.34;101171.00;5067026;28;20075;-71
2022/01/02 10:48:36;;;;;;;7.13;2.70;;;;;;;13.09;70.59;101184.06;5059482;28;20072;-71
2022/01/02 10:51:08;;;;;;;5.97;2.88;;;;;;;13.17;70.09;101161.38;5079814;28;20045;-70
2022/01/02 10:53:38;;;;;;;9.05;3.65;;;;;;;13.16;69.88;101170.47;5062146;28;20078;-70
2022/01/02 10:56:07;;;;;;;9.60;3.40;;;;;;;13.11;69.96;101173.06;5070977;28;20068;-72
2022/01/02 10:58:35;;;;;;;6.85;2.97;;;;;;;13.03;70.27;101164.22;5063945;28;20052;-69
2022/01/02 11:01:06;;;;;;;7.25;2.90;;;;;;;12.97;70.68;101167.03;5068657;28;20113;-71
2022/01/02 11:03:34;;;;;;;11.57;3.97;;;;;;;12.89;70.76;101160.06;5076291;28;20052;-71
2022/01/02 11:06:08;;;;;;;8.68;2.70;;;;;;;12.84;71.19;101169.91;5073056;28;20044;-69
2022/01/02 11:08:37;;;;;;;7.85;3.05;;;;;;;12.79;71.37;101176.00;5073206;28;20048;-69
2022/01/02 11:11:06;;;;;;;6.60;3.15;;;;;;;12.77;71.31;101171.88;5073842;28;20083;-70
2022/01/02 11:13:35;;;;;;;12.40;5.07;;;;;;;12.74;71.36;101167.75;5059148;28;20075;-70
2022/01/02 11:16:04;;;;;;;9.40;4.22;;;;;;;12.71;71.42;101174.44;5058274;28;20131;-71
2022/01/02 11:18:33;;;;;;;20.80;4.38;;;;;;;12.70;71.33;101180.06;5059069;28;20103;-71
2022/01/02 11:21:02;;;;;;;13.98;4.55;;;;;;;12.70;71.71;101177.34;5058017;28;20102;-71
2022/01/02 11:23:37;;;;;;;10.98;4.50;;;;;;;12.68;71.37;101169.50;5058800;28;20073;-70
2022/01/02 11:26:11;;;;;;;9.65;3.63;;;;;;;12.68;71.57;101157.88;5056078;28;20088;-71
2022/01/02 11:28:41;;;;;;;9.75;3.28;;;;;;;12.67;71.63;101158.94;5065921;28;20197;-71
2022/01/02 11:31:28;;;;;;;7.57;3.42;;;;;;;12.65;72.08;101167.25;5038227;28;20063;-71
2022/01/02 11:33:57;;;;;;;11.02;3.75;;;;;;;12.65;72.25;101151.06;5039163;28;20081;-71
2022/01/02 11:36:26;;;;;;;7.00;2.75;;;;;;;12.57;72.18;101147.88;5031048;28;20045;-71
2022/01/02 11:39:02;;;;;;;9.05;4.30;;;;;;;12.62;72.19;101151.53;5022483;28;20053;-71